sensor_id;sensor_type;location;lat;lon;timestamp;temperature;humidity
7214;DHT22;3648;50.614;13.830;2023-09-19T00:00:56;16.80;99.90
7214;DHT22;3648;50.614;13.830;2023-09-19T00:03:23;16.80;99.90
7214;DHT22;3648;50.614;13.830;2023-09-19T00:05:53;16.80;99.90
7214;DHT22;3648;50.614;13.830;2023-09-19T00:08:21;16.80;99.90
7214;DHT22;3648;50.614;13.830;2023-09-19T00:10:50;16.80;99.90
7214;DHT22;3648;50.614;13.830;2023-09-19T00:13:19;16.80;99.90
7214;DHT22;3648;50.614;13.830;2023-09-19T00:15:47;16.80;99.90
7214;DHT22;3648;50.614;13.830;2023-09-19T00:18:15;16.70;99.90
7214;DHT22;3648;50.614;13.830;2023-09-19T00:20:43;16.60;99.90
7214;DHT22;3648;50.614;13.830;2023-09-19T00:23:14;16.60;99.90
7214;DHT22;3648;50.614;13.830;2023-09-19T00:25:42;16.60;1.00
7214;DHT22;3648;50.614;13.830;2023-09-19T00:28:09;16.50;1.00
7214;DHT22;3648;50.614;13.830;2023-09-19T00:30:37;16.60;1.00
7214;DHT22;3648;50.614;13.830;2023-09-19T00:33:05;16.60;1.00
7214;DHT22;3648;50.614;13.830;2023-09-19T00:35:33;16.60;1.00
7214;DHT22;3648;50.614;13.830;2023-09-19T00:38:00;16.60;1.00
7214;DHT22;3648;50.614;13.830;2023-09-19T00:40:29;16.60;1.00
7214;DHT22;3648;50.614;13.830;2023-09-19T00:42:58;16.60;1.00
7214;DHT22;3648;50.614;13.830;2023-09-19T00:45:26;16.60;1.00
7214;DHT22;3648;50.614;13.830;2023-09-19T00:47:53;16.60;99.90
7214;DHT22;3648;50.614;13.830;2023-09-19T00:50:23;16.60;1.00
7214;DHT22;3648;50.614;13.830;2023-09-19T00:52:54;16.60;1.00
7214;DHT22;3648;50.614;13.830;2023-09-19T00:55:24;16.60;1.00
7214;DHT22;3648;50.614;13.830;2023-09-19T00:57:53;16.60;1.00
7214;DHT22;3648;50.614;13.830;2023-09-19T01:00:22;16.60;1.00
7214;DHT22;3648;50.614;13.830;2023-09-19T01:02:49;16.50;99.90
7214;DHT22;3648;50.614;13.830;2023-09-19T01:05:16;16.50;1.00
7214;DHT22;3648;50.614;13.830;2023-09-19T01:07:45;16.50;1.00
7214;DHT22;3648;50.614;13.830;2023-09-19T01:10:16;16.50;1.00
7214;DHT22;3648;50.614;13.830;2023-09-19T01:12:51;16.50;1.00
7214;DHT22;3648;50.614;13.830;2023-09-19T01:15:32;16.60;1.00
7214;DHT22;3648;50.614;13.830;2023-09-19T01:18:19;16.50;1.00
7214;DHT22;3648;50.614;13.830;2023-09-19T05:33:07;16.10;1.00
7214;DHT22;3648;50.614;13.830;2023-09-19T05:35:34;16.20;1.00
7214;DHT22;3648;50.614;13.830;2023-09-19T05:38:03;16.20;1.00
7214;DHT22;3648;50.614;13.830;2023-09-19T05:40:31;16.30;1.00
7214;DHT22;3648;50.614;13.830;2023-09-19T05:42:58;16.40;1.00
7214;DHT22;3648;50.614;13.830;2023-09-19T05:45:25;16.40;1.00
7214;DHT22;3648;50.614;13.830;2023-09-19T05:47:53;16.40;1.00
7214;DHT22;3648;50.614;13.830;2023-09-19T05:50:22;16.40;1.00
7214;DHT22;3648;50.614;13.830;2023-09-19T05:52:54;16.50;1.00
7214;DHT22;3648;50.614;13.830;2023-09-19T05:55:21;16.60;1.00
7214;DHT22;3648;50.614;13.830;2023-09-19T05:57:50;16.60;1.00
7214;DHT22;3648;50.614;13.830;2023-09-19T06:00:18;16.60;1.00
7214;DHT22;3648;50.614;13.830;2023-09-19T06:02:50;16.70;1.00
7214;DHT22;3648;50.614;13.830;2023-09-19T06:05:17;16.70;1.00
7214;DHT22;3648;50.614;13.830;2023-09-19T06:07:46;16.70;1.00
7214;DHT22;3648;50.614;13.830;2023-09-19T06:10:13;16.70;1.00
7214;DHT22;3648;50.614;13.830;2023-09-19T06:12:41;16.80;1.00
7214;DHT22;3648;50.614;13.830;2023-09-19T06:15:09;16.80;1.00
7214;DHT22;3648;50.614;13.830;2023-09-19T06:17:41;16.80;1.00
7214;DHT22;3648;50.614;13.830;2023-09-19T06:20:08;16.90;1.00
7214;DHT22;3648;50.614;13.830;2023-09-19T06:22:41;16.80;1.00
7214;DHT22;3648;50.614;13.830;2023-09-19T06:25:10;16.80;1.00
7214;DHT22;3648;50.614;13.830;2023-09-19T06:27:38;16.80;1.00
7214;DHT22;3648;50.614;13.830;2023-09-19T06:30:08;16.80;1.00
7214;DHT22;3648;50.614;13.830;2023-09-19T06:32:35;16.90;1.00
7214;DHT22;3648;50.614;13.830;2023-09-19T06:35:02;16.90;1.00
7214;DHT22;3648;50.614;13.830;2023-09-19T06:37:33;16.90;1.00
7214;DHT22;3648;50.614;13.830;2023-09-19T06:40:01;17.00;1.00
7214;DHT22;3648;50.614;13.830;2023-09-19T06:42:30;17.00;1.00
7214;DHT22;3648;50.614;13.830;2023-09-19T06:44:57;17.10;1.00
7214;DHT22;3648;50.614;13.830;2023-09-19T06:47:24;17.10;1.00
7214;DHT22;3648;50.614;13.830;2023-09-19T06:49:51;17.10;99.90
7214;DHT22;3648;50.614;13.830;2023-09-19T06:52:18;17.20;99.90
7214;DHT22;3648;50.614;13.830;2023-09-19T06:54:47;17.20;99.90
7214;DHT22;3648;50.614;13.830;2023-09-19T06:57:16;17.20;99.90
7214;DHT22;3648;50.614;13.830;2023-09-19T06:59:44;17.20;99.90
7214;DHT22;3648;50.614;13.830;2023-09-19T07:02:11;17.30;99.90
7214;DHT22;3648;50.614;13.830;2023-09-19T07:04:39;17.20;99.90
7214;DHT22;3648;50.614;13.830;2023-09-19T07:07:06;17.30;99.90
7214;DHT22;3648;50.614;13.830;2023-09-19T07:09:34;17.30;99.90
7214;DHT22;3648;50.614;13.830;2023-09-19T07:12:02;17.40;99.90
7214;DHT22;3648;50.614;13.830;2023-09-19T07:14:30;17.40;99.90
7214;DHT22;3648;50.614;13.830;2023-09-19T07:16:59;17.50;99.90
7214;DHT22;3648;50.614;13.830;2023-09-19T07:19:27;17.50;99.90
7214;DHT22;3648;50.614;13.830;2023-09-19T07:21:55;17.60;99.90
7214;DHT22;3648;50.614;13.830;2023-09-19T07:24:24;17.60;1.00
7214;DHT22;3648;50.614;13.830;2023-09-19T07:26:53;17.60;99.90
7214;DHT22;3648;50.614;13.830;2023-09-19T07:29:20;17.70;99.90
7214;DHT22;3648;50.614;13.830;2023-09-19T07:31:47;17.70;99.90
7214;DHT22;3648;50.614;13.830;2023-09-19T07:34:17;17.70;99.90
7214;DHT22;3648;50.614;13.830;2023-09-19T07:36:44;17.80;99.90
7214;DHT22;3648;50.614;13.830;2023-09-19T07:39:12;17.80;99.90
7214;DHT22;3648;50.614;13.830;2023-09-19T07:41:39;17.80;99.90
7214;DHT22;3648;50.614;13.830;2023-09-19T07:44:06;17.90;99.90
7214;DHT22;3648;50.614;13.830;2023-09-19T07:46:33;17.90;99.90
7214;DHT22;3648;50.614;13.830;2023-09-19T07:49:00;18.00;99.90
7214;DHT22;3648;50.614;13.830;2023-09-19T07:51:28;18.00;99.90
7214;DHT22;3648;50.614;13.830;2023-09-19T07:53:55;18.10;99.90
7214;DHT22;3648;50.614;13.830;2023-09-19T07:56:22;18.10;99.90
7214;DHT22;3648;50.614;13.830;2023-09-19T07:58:51;18.20;99.90
7214;DHT22;3648;50.614;13.830;2023-09-19T08:01:18;18.10;99.90
7214;DHT22;3648;50.614;13.830;2023-09-19T08:03:45;18.20;99.90
7214;DHT22;3648;50.614;13.830;2023-09-19T08:06:12;18.30;99.90
7214;DHT22;3648;50.614;13.830;2023-09-19T08:08:41;18.40;99.90
7214;DHT22;3648;50.614;13.830;2023-09-19T08:11:08;18.40;99.90
7214;DHT22;3648;50.614;13.830;2023-09-19T08:13:38;18.50;99.90
7214;DHT22;3648;50.614;13.830;2023-09-19T08:16:09;18.50;99.90
7214;DHT22;3648;50.614;13.830;2023-09-19T08:18:36;18.50;99.90
7214;DHT22;3648;50.614;13.830;2023-09-19T08:21:05;18.60;99.90
7214;DHT22;3648;50.614;13.830;2023-09-19T08:23:33;18.80;99.90
7214;DHT22;3648;50.614;13.830;2023-09-19T08:26:02;18.90;99.90
7214;DHT22;3648;50.614;13.830;2023-09-19T08:28:33;19.00;99.90
7214;DHT22;3648;50.614;13.830;2023-09-19T08:31:02;19.00;99.90
7214;DHT22;3648;50.614;13.830;2023-09-19T08:33:31;19.00;99.90
7214;DHT22;3648;50.614;13.830;2023-09-19T08:35:58;19.00;99.90
7214;DHT22;3648;50.614;13.830;2023-09-19T08:38:25;19.00;99.90
7214;DHT22;3648;50.614;13.830;2023-09-19T08:40:57;19.00;99.90
7214;DHT22;3648;50.614;13.830;2023-09-19T08:43:26;19.10;99.90
7214;DHT22;3648;50.614;13.830;2023-09-19T08:46:02;19.20;99.90
7214;DHT22;3648;50.614;13.830;2023-09-19T08:48:31;19.40;99.90
7214;DHT22;3648;50.614;13.830;2023-09-19T08:51:02;19.60;99.90
7214;DHT22;3648;50.614;13.830;2023-09-19T08:53:36;19.80;99.90
7214;DHT22;3648;50.614;13.830;2023-09-19T08:56:10;20.00;99.90
7214;DHT22;3648;50.614;13.830;2023-09-19T08:58:44;20.20;99.90
7214;DHT22;3648;50.614;13.830;2023-09-19T09:01:15;20.30;99.90
7214;DHT22;3648;50.614;13.830;2023-09-19T09:03:43;20.40;99.90
7214;DHT22;3648;50.614;13.830;2023-09-19T09:06:14;20.60;99.90
7214;DHT22;3648;50.614;13.830;2023-09-19T09:08:42;20.50;99.90
7214;DHT22;3648;50.614;13.830;2023-09-19T09:11:11;20.60;99.90
7214;DHT22;3648;50.614;13.830;2023-09-19T09:13:38;20.70;99.90
7214;DHT22;3648;50.614;13.830;2023-09-19T09:16:08;20.60;99.90
7214;DHT22;3648;50.614;13.830;2023-09-19T09:18:35;20.70;99.90
7214;DHT22;3648;50.614;13.830;2023-09-19T09:21:03;20.80;99.90
7214;DHT22;3648;50.614;13.830;2023-09-19T09:23:31;20.80;99.90
7214;DHT22;3648;50.614;13.830;2023-09-19T09:25:59;20.70;99.90
7214;DHT22;3648;50.614;13.830;2023-09-19T09:28:29;20.80;99.90
7214;DHT22;3648;50.614;13.830;2023-09-19T09:30:57;20.70;99.90
7214;DHT22;3648;50.614;13.830;2023-09-19T09:33:26;20.70;99.90
7214;DHT22;3648;50.614;13.830;2023-09-19T09:35:55;20.70;99.90
7214;DHT22;3648;50.614;13.830;2023-09-19T09:38:24;20.60;99.90
7214;DHT22;3648;50.614;13.830;2023-09-19T09:40:53;20.50;99.90
7214;DHT22;3648;50.614;13.830;2023-09-19T09:43:27;20.50;99.90
7214;DHT22;3648;50.614;13.830;2023-09-19T09:46:07;20.40;99.90
7214;DHT22;3648;50.614;13.830;2023-09-19T09:49:01;20.40;99.90
7214;DHT22;3648;50.614;13.830;2023-09-19T09:51:46;20.30;99.90
7214;DHT22;3648;50.614;13.830;2023-09-19T09:54:24;20.30;99.90
7214;DHT22;3648;50.614;13.830;2023-09-19T09:56:54;20.20;99.90
7214;DHT22;3648;50.614;13.830;2023-09-19T09:59:48;20.20;99.90
7214;DHT22;3648;50.614;13.830;2023-09-19T10:02:18;20.30;99.90
7214;DHT22;3648;50.614;13.830;2023-09-19T10:04:51;20.40;99.90
7214;DHT22;3648;50.614;13.830;2023-09-19T10:07:25;20.40;99.90
7214;DHT22;3648;50.614;13.830;2023-09-19T10:09:57;20.30;99.90
7214;DHT22;3648;50.614;13.830;2023-09-19T10:12:31;20.40;99.90
7214;DHT22;3648;50.614;13.830;2023-09-19T10:15:00;20.30;99.90
7214;DHT22;3648;50.614;13.830;2023-09-19T10:17:29;20.30;99.90
7214;DHT22;3648;50.614;13.830;2023-09-19T10:19:59;20.30;99.90
7214;DHT22;3648;50.614;13.830;2023-09-19T10:22:35;20.20;99.90
7214;DHT22;3648;50.614;13.830;2023-09-19T10:25:04;20.20;99.90
7214;DHT22;3648;50.614;13.830;2023-09-19T10:27:35;20.10;99.90
7214;DHT22;3648;50.614;13.830;2023-09-19T10:30:05;20.20;99.90
7214;DHT22;3648;50.614;13.830;2023-09-19T10:32:35;20.20;99.90
7214;DHT22;3648;50.614;13.830;2023-09-19T10:35:05;20.30;99.90
7214;DHT22;3648;50.614;13.830;2023-09-19T10:37:34;20.40;99.90
7214;DHT22;3648;50.614;13.830;2023-09-19T10:40:04;20.50;99.90
7214;DHT22;3648;50.614;13.830;2023-09-19T10:42:38;20.50;99.90
7214;DHT22;3648;50.614;13.830;2023-09-19T10:45:08;20.70;99.90
7214;DHT22;3648;50.614;13.830;2023-09-19T10:47:39;20.80;99.90
7214;DHT22;3648;50.614;13.830;2023-09-19T10:50:08;21.00;99.90
7214;DHT22;3648;50.614;13.830;2023-09-19T10:52:40;21.00;99.90
7214;DHT22;3648;50.614;13.830;2023-09-19T10:55:08;21.10;99.90
7214;DHT22;3648;50.614;13.830;2023-09-19T10:57:37;21.20;99.90
7214;DHT22;3648;50.614;13.830;2023-09-19T11:00:05;21.30;99.90
7214;DHT22;3648;50.614;13.830;2023-09-19T11:03:17;21.30;99.90
7214;DHT22;3648;50.614;13.830;2023-09-19T11:06:12;21.30;99.90
7214;DHT22;3648;50.614;13.830;2023-09-19T11:08:58;21.40;99.90
7214;DHT22;3648;50.614;13.830;2023-09-19T11:11:44;21.50;99.90
7214;DHT22;3648;50.614;13.830;2023-09-19T11:14:38;21.50;99.90
7214;DHT22;3648;50.614;13.830;2023-09-19T11:17:34;21.50;99.90
7214;DHT22;3648;50.614;13.830;2023-09-19T11:20:22;21.40;99.90
7214;DHT22;3648;50.614;13.830;2023-09-19T11:23:29;21.50;99.90
7214;DHT22;3648;50.614;13.830;2023-09-19T11:25:56;21.50;99.90
7214;DHT22;3648;50.614;13.830;2023-09-19T11:28:44;21.60;99.90
7214;DHT22;3648;50.614;13.830;2023-09-19T11:34:39;21.60;99.90
7214;DHT22;3648;50.614;13.830;2023-09-19T11:40:12;21.70;99.90
7214;DHT22;3648;50.614;13.830;2023-09-19T11:42:43;21.70;99.90
7214;DHT22;3648;50.614;13.830;2023-09-19T11:48:23;21.80;99.90
7214;DHT22;3648;50.614;13.830;2023-09-19T11:50:51;21.80;99.90
7214;DHT22;3648;50.614;13.830;2023-09-19T11:53:20;21.70;99.90
7214;DHT22;3648;50.614;13.830;2023-09-19T11:55:49;21.70;99.90
7214;DHT22;3648;50.614;13.830;2023-09-19T11:58:16;21.50;99.90
7214;DHT22;3648;50.614;13.830;2023-09-19T12:00:45;21.50;99.90
7214;DHT22;3648;50.614;13.830;2023-09-19T12:03:21;21.50;99.90
7214;DHT22;3648;50.614;13.830;2023-09-19T12:05:50;21.40;99.90
7214;DHT22;3648;50.614;13.830;2023-09-19T12:08:18;21.40;99.90
7214;DHT22;3648;50.614;13.830;2023-09-19T12:10:50;21.40;99.90
7214;DHT22;3648;50.614;13.830;2023-09-19T12:13:18;21.50;99.90
7214;DHT22;3648;50.614;13.830;2023-09-19T12:15:45;21.50;99.90
7214;DHT22;3648;50.614;13.830;2023-09-19T12:18:27;21.50;99.90
7214;DHT22;3648;50.614;13.830;2023-09-19T12:20:55;21.60;99.90
7214;DHT22;3648;50.614;13.830;2023-09-19T12:23:23;21.60;99.90
7214;DHT22;3648;50.614;13.830;2023-09-19T12:25:53;21.70;99.90
7214;DHT22;3648;50.614;13.830;2023-09-19T12:28:26;21.70;99.90
7214;DHT22;3648;50.614;13.830;2023-09-19T12:30:55;21.70;99.90
7214;DHT22;3648;50.614;13.830;2023-09-19T12:33:23;21.70;99.90
7214;DHT22;3648;50.614;13.830;2023-09-19T12:35:51;21.70;99.90
7214;DHT22;3648;50.614;13.830;2023-09-19T12:38:24;21.70;99.90
7214;DHT22;3648;50.614;13.830;2023-09-19T12:40:52;21.60;99.90
7214;DHT22;3648;50.614;13.830;2023-09-19T12:43:20;21.70;99.90
7214;DHT22;3648;50.614;13.830;2023-09-19T12:45:47;21.80;99.90
7214;DHT22;3648;50.614;13.830;2023-09-19T12:48:18;21.90;99.90
7214;DHT22;3648;50.614;13.830;2023-09-19T12:51:03;21.80;99.90
7214;DHT22;3648;50.614;13.830;2023-09-19T12:53:34;21.90;99.90
7214;DHT22;3648;50.614;13.830;2023-09-19T12:56:07;21.90;99.90
7214;DHT22;3648;50.614;13.830;2023-09-19T12:58:35;21.90;99.90
7214;DHT22;3648;50.614;13.830;2023-09-19T13:01:15;22.00;99.90
7214;DHT22;3648;50.614;13.830;2023-09-19T13:03:43;22.00;99.90
7214;DHT22;3648;50.614;13.830;2023-09-19T13:06:11;22.00;99.90
7214;DHT22;3648;50.614;13.830;2023-09-19T13:08:42;22.00;99.90
7214;DHT22;3648;50.614;13.830;2023-09-19T13:11:17;22.00;99.90
7214;DHT22;3648;50.614;13.830;2023-09-19T13:13:47;22.00;99.90
7214;DHT22;3648;50.614;13.830;2023-09-19T13:16:19;22.00;99.90
7214;DHT22;3648;50.614;13.830;2023-09-19T13:18:49;22.00;99.90
7214;DHT22;3648;50.614;13.830;2023-09-19T13:21:28;22.00;99.90
7214;DHT22;3648;50.614;13.830;2023-09-19T13:24:19;22.00;99.90
7214;DHT22;3648;50.614;13.830;2023-09-19T13:26:48;22.00;99.90
7214;DHT22;3648;50.614;13.830;2023-09-19T13:29:15;22.00;99.90
7214;DHT22;3648;50.614;13.830;2023-09-19T13:31:46;22.00;99.90
7214;DHT22;3648;50.614;13.830;2023-09-19T13:34:13;22.00;99.90
7214;DHT22;3648;50.614;13.830;2023-09-19T13:36:41;22.00;99.90
7214;DHT22;3648;50.614;13.830;2023-09-19T13:39:08;22.00;99.90
7214;DHT22;3648;50.614;13.830;2023-09-19T13:41:38;22.10;99.90
7214;DHT22;3648;50.614;13.830;2023-09-19T13:44:07;22.10;99.90
7214;DHT22;3648;50.614;13.830;2023-09-19T13:46:36;22.20;99.90
7214;DHT22;3648;50.614;13.830;2023-09-19T13:49:03;22.30;99.90
7214;DHT22;3648;50.614;13.830;2023-09-19T13:51:31;22.30;99.90
7214;DHT22;3648;50.614;13.830;2023-09-19T13:53:58;22.30;99.90
7214;DHT22;3648;50.614;13.830;2023-09-19T13:56:26;22.30;99.90
7214;DHT22;3648;50.614;13.830;2023-09-19T13:58:53;22.30;99.90
7214;DHT22;3648;50.614;13.830;2023-09-19T14:01:22;22.30;99.90
7214;DHT22;3648;50.614;13.830;2023-09-19T14:03:49;22.30;99.90
7214;DHT22;3648;50.614;13.830;2023-09-19T14:06:16;22.40;99.90
7214;DHT22;3648;50.614;13.830;2023-09-19T14:08:44;22.30;99.90
7214;DHT22;3648;50.614;13.830;2023-09-19T14:11:13;22.30;99.90
7214;DHT22;3648;50.614;13.830;2023-09-19T14:13:42;22.30;99.90
7214;DHT22;3648;50.614;13.830;2023-09-19T14:16:12;22.40;99.90
7214;DHT22;3648;50.614;13.830;2023-09-19T14:18:41;22.40;99.90
7214;DHT22;3648;50.614;13.830;2023-09-19T14:21:08;22.40;99.90
7214;DHT22;3648;50.614;13.830;2023-09-19T14:23:36;22.40;99.90
7214;DHT22;3648;50.614;13.830;2023-09-19T14:26:04;22.50;99.90
7214;DHT22;3648;50.614;13.830;2023-09-19T14:28:31;22.40;99.90
7214;DHT22;3648;50.614;13.830;2023-09-19T14:31:04;22.50;99.90
7214;DHT22;3648;50.614;13.830;2023-09-19T14:33:31;22.50;99.90
7214;DHT22;3648;50.614;13.830;2023-09-19T14:36:02;22.50;99.90
7214;DHT22;3648;50.614;13.830;2023-09-19T14:38:31;22.60;99.90
7214;DHT22;3648;50.614;13.830;2023-09-19T14:41:00;22.50;99.90
7214;DHT22;3648;50.614;13.830;2023-09-19T14:43:27;22.50;99.90
7214;DHT22;3648;50.614;13.830;2023-09-19T14:45:55;22.50;99.90
7214;DHT22;3648;50.614;13.830;2023-09-19T14:48:22;22.50;99.90
7214;DHT22;3648;50.614;13.830;2023-09-19T14:50:51;22.60;99.90
7214;DHT22;3648;50.614;13.830;2023-09-19T14:53:20;22.60;99.90
7214;DHT22;3648;50.614;13.830;2023-09-19T14:55:47;22.50;99.90
7214;DHT22;3648;50.614;13.830;2023-09-19T14:58:17;22.50;99.90
7214;DHT22;3648;50.614;13.830;2023-09-19T15:00:45;22.50;99.90
7214;DHT22;3648;50.614;13.830;2023-09-19T15:03:13;22.50;99.90
7214;DHT22;3648;50.614;13.830;2023-09-19T15:05:41;22.40;99.90
7214;DHT22;3648;50.614;13.830;2023-09-19T15:08:09;22.40;99.90
7214;DHT22;3648;50.614;13.830;2023-09-19T15:10:37;22.40;99.90
7214;DHT22;3648;50.614;13.830;2023-09-19T15:13:04;22.30;99.90
7214;DHT22;3648;50.614;13.830;2023-09-19T15:15:31;22.30;99.90
7214;DHT22;3648;50.614;13.830;2023-09-19T15:17:59;22.30;99.90
7214;DHT22;3648;50.614;13.830;2023-09-19T15:20:26;22.20;99.90
7214;DHT22;3648;50.614;13.830;2023-09-19T15:22:53;22.20;99.90
7214;DHT22;3648;50.614;13.830;2023-09-19T15:25:20;22.10;99.90
7214;DHT22;3648;50.614;13.830;2023-09-19T15:27:48;22.00;99.90
7214;DHT22;3648;50.614;13.830;2023-09-19T15:30:15;22.00;99.90
7214;DHT22;3648;50.614;13.830;2023-09-19T15:32:42;21.90;99.90
7214;DHT22;3648;50.614;13.830;2023-09-19T15:35:09;21.90;99.90
7214;DHT22;3648;50.614;13.830;2023-09-19T15:37:38;21.90;99.90
7214;DHT22;3648;50.614;13.830;2023-09-19T15:40:07;21.80;99.90
7214;DHT22;3648;50.614;13.830;2023-09-19T15:42:36;21.70;99.90
7214;DHT22;3648;50.614;13.830;2023-09-19T15:45:06;21.60;99.90
7214;DHT22;3648;50.614;13.830;2023-09-19T15:47:35;21.60;99.90
7214;DHT22;3648;50.614;13.830;2023-09-19T15:50:03;21.50;99.90
7214;DHT22;3648;50.614;13.830;2023-09-19T15:52:30;21.50;99.90
7214;DHT22;3648;50.614;13.830;2023-09-19T15:54:57;21.40;99.90
7214;DHT22;3648;50.614;13.830;2023-09-19T15:57:24;21.30;99.90
7214;DHT22;3648;50.614;13.830;2023-09-19T15:59:51;21.30;99.90
7214;DHT22;3648;50.614;13.830;2023-09-19T16:02:20;21.20;99.90
7214;DHT22;3648;50.614;13.830;2023-09-19T16:04:49;21.20;99.90
7214;DHT22;3648;50.614;13.830;2023-09-19T16:07:16;21.10;99.90
7214;DHT22;3648;50.614;13.830;2023-09-19T16:09:44;21.00;99.90
7214;DHT22;3648;50.614;13.830;2023-09-19T16:12:11;20.90;99.90
7214;DHT22;3648;50.614;13.830;2023-09-19T16:14:39;20.80;99.90
7214;DHT22;3648;50.614;13.830;2023-09-19T16:17:06;20.70;99.90
7214;DHT22;3648;50.614;13.830;2023-09-19T16:19:35;20.60;99.90
7214;DHT22;3648;50.614;13.830;2023-09-19T16:22:02;20.60;99.90
7214;DHT22;3648;50.614;13.830;2023-09-19T16:24:29;20.60;99.90
7214;DHT22;3648;50.614;13.830;2023-09-19T16:26:56;20.50;99.90
7214;DHT22;3648;50.614;13.830;2023-09-19T16:29:26;20.50;99.90
7214;DHT22;3648;50.614;13.830;2023-09-19T16:31:53;20.40;99.90
7214;DHT22;3648;50.614;13.830;2023-09-19T16:34:20;20.30;99.90
7214;DHT22;3648;50.614;13.830;2023-09-19T16:36:48;20.30;99.90
7214;DHT22;3648;50.614;13.830;2023-09-19T16:39:16;20.30;99.90
7214;DHT22;3648;50.614;13.830;2023-09-19T16:41:43;20.20;99.90
7214;DHT22;3648;50.614;13.830;2023-09-19T16:44:10;20.10;99.90
7214;DHT22;3648;50.614;13.830;2023-09-19T16:46:37;20.00;99.90
7214;DHT22;3648;50.614;13.830;2023-09-19T16:49:04;20.00;99.90
7214;DHT22;3648;50.614;13.830;2023-09-19T16:51:31;19.90;99.90
7214;DHT22;3648;50.614;13.830;2023-09-19T16:53:59;19.90;99.90
7214;DHT22;3648;50.614;13.830;2023-09-19T16:56:27;19.80;99.90
7214;DHT22;3648;50.614;13.830;2023-09-19T16:58:55;19.80;99.90
7214;DHT22;3648;50.614;13.830;2023-09-19T17:01:24;19.70;99.90
7214;DHT22;3648;50.614;13.830;2023-09-19T17:03:52;19.70;99.90
7214;DHT22;3648;50.614;13.830;2023-09-19T17:06:19;19.60;99.90
7214;DHT22;3648;50.614;13.830;2023-09-19T17:08:49;19.50;99.90
7214;DHT22;3648;50.614;13.830;2023-09-19T17:11:19;19.50;99.90
7214;DHT22;3648;50.614;13.830;2023-09-19T17:13:47;19.50;99.90
7214;DHT22;3648;50.614;13.830;2023-09-19T17:16:18;19.30;99.90
7214;DHT22;3648;50.614;13.830;2023-09-19T17:18:50;19.20;99.90
7214;DHT22;3648;50.614;13.830;2023-09-19T17:21:19;19.20;99.90
7214;DHT22;3648;50.614;13.830;2023-09-19T17:23:47;19.20;99.90
7214;DHT22;3648;50.614;13.830;2023-09-19T17:26:15;19.10;99.90
7214;DHT22;3648;50.614;13.830;2023-09-19T17:28:45;19.00;99.90
7214;DHT22;3648;50.614;13.830;2023-09-19T17:31:14;19.00;99.90
7214;DHT22;3648;50.614;13.830;2023-09-19T17:33:42;18.90;99.90
7214;DHT22;3648;50.614;13.830;2023-09-19T17:36:11;18.90;99.90
7214;DHT22;3648;50.614;13.830;2023-09-19T17:38:39;18.80;99.90
7214;DHT22;3648;50.614;13.830;2023-09-19T17:41:07;18.80;99.90
7214;DHT22;3648;50.614;13.830;2023-09-19T17:43:35;18.70;99.90
7214;DHT22;3648;50.614;13.830;2023-09-19T17:46:12;18.70;99.90
7214;DHT22;3648;50.614;13.830;2023-09-19T17:48:41;18.60;99.90
7214;DHT22;3648;50.614;13.830;2023-09-19T17:51:10;18.50;99.90
7214;DHT22;3648;50.614;13.830;2023-09-19T17:53:40;18.50;99.90
7214;DHT22;3648;50.614;13.830;2023-09-19T17:56:08;18.50;99.90
7214;DHT22;3648;50.614;13.830;2023-09-19T17:58:36;18.40;99.90
7214;DHT22;3648;50.614;13.830;2023-09-19T18:01:11;18.40;99.90
7214;DHT22;3648;50.614;13.830;2023-09-19T18:03:40;18.20;99.90
7214;DHT22;3648;50.614;13.830;2023-09-19T18:06:08;18.20;99.90
7214;DHT22;3648;50.614;13.830;2023-09-19T18:08:37;18.10;99.90
7214;DHT22;3648;50.614;13.830;2023-09-19T18:11:05;18.10;99.90
7214;DHT22;3648;50.614;13.830;2023-09-19T18:13:42;18.00;99.90
7214;DHT22;3648;50.614;13.830;2023-09-19T18:16:11;18.00;99.90
7214;DHT22;3648;50.614;13.830;2023-09-19T18:18:38;17.90;99.90
7214;DHT22;3648;50.614;13.830;2023-09-19T18:21:05;17.80;99.90
7214;DHT22;3648;50.614;13.830;2023-09-19T18:23:33;17.70;99.90
7214;DHT22;3648;50.614;13.830;2023-09-19T18:26:01;17.70;99.90
7214;DHT22;3648;50.614;13.830;2023-09-19T18:28:30;17.60;99.90
7214;DHT22;3648;50.614;13.830;2023-09-19T18:30:58;17.60;99.90
7214;DHT22;3648;50.614;13.830;2023-09-19T18:33:26;17.60;99.90
7214;DHT22;3648;50.614;13.830;2023-09-19T18:35:59;17.60;99.90
7214;DHT22;3648;50.614;13.830;2023-09-19T18:38:27;17.50;99.90
7214;DHT22;3648;50.614;13.830;2023-09-19T18:40:54;17.50;99.90
7214;DHT22;3648;50.614;13.830;2023-09-19T18:43:22;17.40;99.90
7214;DHT22;3648;50.614;13.830;2023-09-19T18:45:55;17.40;99.90
7214;DHT22;3648;50.614;13.830;2023-09-19T18:48:22;17.30;99.90
7214;DHT22;3648;50.614;13.830;2023-09-19T18:50:52;17.30;99.90
7214;DHT22;3648;50.614;13.830;2023-09-19T18:53:19;17.30;99.90
7214;DHT22;3648;50.614;13.830;2023-09-19T18:55:49;17.30;99.90
7214;DHT22;3648;50.614;13.830;2023-09-19T18:58:17;17.30;99.90
7214;DHT22;3648;50.614;13.830;2023-09-19T19:00:44;17.20;99.90
7214;DHT22;3648;50.614;13.830;2023-09-19T19:03:11;17.20;99.90
7214;DHT22;3648;50.614;13.830;2023-09-19T19:05:40;17.20;99.90
7214;DHT22;3648;50.614;13.830;2023-09-19T19:08:09;17.20;99.90
7214;DHT22;3648;50.614;13.830;2023-09-19T19:10:38;17.10;99.90
7214;DHT22;3648;50.614;13.830;2023-09-19T19:13:05;17.10;99.90
7214;DHT22;3648;50.614;13.830;2023-09-19T19:15:33;17.00;99.90
7214;DHT22;3648;50.614;13.830;2023-09-19T19:18:00;17.00;99.90
7214;DHT22;3648;50.614;13.830;2023-09-19T19:20:28;17.00;99.90
7214;DHT22;3648;50.614;13.830;2023-09-19T19:22:56;17.00;99.90
7214;DHT22;3648;50.614;13.830;2023-09-19T19:25:24;17.00;99.90
7214;DHT22;3648;50.614;13.830;2023-09-19T19:27:52;17.00;99.90
7214;DHT22;3648;50.614;13.830;2023-09-19T19:30:19;16.90;99.90
7214;DHT22;3648;50.614;13.830;2023-09-19T19:32:47;16.90;99.90
7214;DHT22;3648;50.614;13.830;2023-09-19T19:35:14;16.80;99.90
7214;DHT22;3648;50.614;13.830;2023-09-19T19:37:43;16.80;99.90
7214;DHT22;3648;50.614;13.830;2023-09-19T19:40:11;16.80;99.90
7214;DHT22;3648;50.614;13.830;2023-09-19T19:42:40;16.70;99.90
7214;DHT22;3648;50.614;13.830;2023-09-19T19:45:08;16.70;99.90
7214;DHT22;3648;50.614;13.830;2023-09-19T19:47:35;16.70;99.90
7214;DHT22;3648;50.614;13.830;2023-09-19T19:50:02;16.60;99.90
7214;DHT22;3648;50.614;13.830;2023-09-19T19:52:29;16.60;99.90
7214;DHT22;3648;50.614;13.830;2023-09-19T19:54:58;16.50;99.90
7214;DHT22;3648;50.614;13.830;2023-09-19T19:57:25;16.50;99.90
7214;DHT22;3648;50.614;13.830;2023-09-19T19:59:53;16.50;99.90
7214;DHT22;3648;50.614;13.830;2023-09-19T20:02:22;16.40;99.90
7214;DHT22;3648;50.614;13.830;2023-09-19T20:04:49;16.40;99.90
7214;DHT22;3648;50.614;13.830;2023-09-19T20:07:17;16.40;99.90
7214;DHT22;3648;50.614;13.830;2023-09-19T20:09:44;16.30;99.90
7214;DHT22;3648;50.614;13.830;2023-09-19T20:12:11;16.20;99.90
7214;DHT22;3648;50.614;13.830;2023-09-19T20:14:38;16.20;99.90
7214;DHT22;3648;50.614;13.830;2023-09-19T20:17:06;16.10;99.90
7214;DHT22;3648;50.614;13.830;2023-09-19T20:19:35;16.00;99.90
7214;DHT22;3648;50.614;13.830;2023-09-19T20:22:02;16.00;99.90
7214;DHT22;3648;50.614;13.830;2023-09-19T20:24:31;16.00;99.90